sensor_id;sensor_type;location;lat;lon;timestamp;pressure;altitude;pressure_sealevel;temperature;humidity
12203;BME280;6164;42.178;24.622;2024-02-16T00:00:01;100273.44;;;4.71;100.00
12203;BME280;6164;42.178;24.622;2024-02-16T00:02:28;100268.56;;;4.67;100.00
12203;BME280;6164;42.178;24.622;2024-02-16T00:04:54;100277.16;;;4.45;100.00
12203;BME280;6164;42.178;24.622;2024-02-16T00:07:21;100276.94;;;4.48;100.00
12203;BME280;6164;42.178;24.622;2024-02-16T00:09:49;100268.72;;;4.42;100.00
12203;BME280;6164;42.178;24.622;2024-02-16T00:12:15;100284.91;;;4.47;100.00
12203;BME280;6164;42.178;24.622;2024-02-16T00:14:42;100277.78;;;4.49;100.00
12203;BME280;6164;42.178;24.622;2024-02-16T00:17:11;100281.28;;;4.60;100.00
12203;BME280;6164;42.178;24.622;2024-02-16T00:19:37;100280.28;;;4.50;100.00
12203;BME280;6164;42.178;24.622;2024-02-16T00:22:04;100282.00;;;4.62;100.00
12203;BME280;6164;42.178;24.622;2024-02-16T00:24:32;100277.75;;;4.72;100.00
12203;BME280;6164;42.178;24.622;2024-02-16T00:27:00;100282.88;;;4.74;100.00
12203;BME280;6164;42.178;24.622;2024-02-16T00:29:26;100278.97;;;4.79;100.00
12203;BME280;6164;42.178;24.622;2024-02-16T00:31:53;100277.66;;;4.85;100.00
12203;BME280;6164;42.178;24.622;2024-02-16T00:34:20;100276.59;;;4.87;100.00
12203;BME280;6164;42.178;24.622;2024-02-16T00:36:47;100277.09;;;4.92;100.00
12203;BME280;6164;42.178;24.622;2024-02-16T00:39:13;100283.97;;;4.93;100.00
12203;BME280;6164;42.178;24.622;2024-02-16T00:41:40;100276.84;;;4.95;100.00
12203;BME280;6164;42.178;24.622;2024-02-16T00:44:08;100276.00;;;4.84;100.00
12203;BME280;6164;42.178;24.622;2024-02-16T00:46:35;100282.41;;;4.80;100.00
12203;BME280;6164;42.178;24.622;2024-02-16T00:49:02;100284.13;;;4.57;100.00
12203;BME280;6164;42.178;24.622;2024-02-16T00:51:29;100276.53;;;4.65;100.00
12203;BME280;6164;42.178;24.622;2024-02-16T00:53:55;100271.69;;;4.83;100.00
12203;BME280;6164;42.178;24.622;2024-02-16T00:56:22;100276.25;;;4.92;100.00
12203;BME280;6164;42.178;24.622;2024-02-16T00:58:49;100274.59;;;4.91;100.00
12203;BME280;6164;42.178;24.622;2024-02-16T01:01:16;100269.72;;;4.97;100.00
12203;BME280;6164;42.178;24.622;2024-02-16T01:03:43;100269.75;;;5.08;100.00
12203;BME280;6164;42.178;24.622;2024-02-16T01:06:09;100266.41;;;5.17;100.00
12203;BME280;6164;42.178;24.622;2024-02-16T01:08:36;100268.31;;;5.26;100.00
12203;BME280;6164;42.178;24.622;2024-02-16T01:11:02;100266.88;;;5.22;100.00
12203;BME280;6164;42.178;24.622;2024-02-16T01:13:29;100267.97;;;5.31;100.00
12203;BME280;6164;42.178;24.622;2024-02-16T01:15:56;100273.91;;;5.33;100.00
12203;BME280;6164;42.178;24.622;2024-02-16T01:18:24;100267.72;;;5.34;100.00
12203;BME280;6164;42.178;24.622;2024-02-16T01:20:51;100262.34;;;5.35;100.00
12203;BME280;6164;42.178;24.622;2024-02-16T01:23:17;100270.00;;;5.38;100.00
12203;BME280;6164;42.178;24.622;2024-02-16T01:25:44;100270.13;;;5.48;100.00
12203;BME280;6164;42.178;24.622;2024-02-16T01:28:11;100273.66;;;5.47;100.00
12203;BME280;6164;42.178;24.622;2024-02-16T01:30:38;100271.03;;;5.47;100.00
12203;BME280;6164;42.178;24.622;2024-02-16T01:33:04;100272.38;;;5.53;100.00
12203;BME280;6164;42.178;24.622;2024-02-16T01:35:32;100271.03;;;5.47;100.00
12203;BME280;6164;42.178;24.622;2024-02-16T01:37:59;100279.88;;;5.46;100.00
12203;BME280;6164;42.178;24.622;2024-02-16T01:40:26;100270.47;;;5.55;100.00
12203;BME280;6164;42.178;24.622;2024-02-16T01:42:53;100274.97;;;5.53;100.00
12203;BME280;6164;42.178;24.622;2024-02-16T01:45:19;100270.13;;;5.48;100.00
12203;BME280;6164;42.178;24.622;2024-02-16T01:47:47;100268.44;;;5.47;100.00
12203;BME280;6164;42.178;24.622;2024-02-16T01:50:14;100271.03;;;5.47;100.00
12203;BME280;6164;42.178;24.622;2024-02-16T01:52:42;100269.50;;;5.56;100.00
12203;BME280;6164;42.178;24.622;2024-02-16T01:55:09;100271.66;;;5.62;100.00
12203;BME280;6164;42.178;24.622;2024-02-16T01:57:38;100271.19;;;5.57;100.00
12203;BME280;6164;42.178;24.622;2024-02-16T02:00:05;100265.59;;;5.50;100.00
12203;BME280;6164;42.178;24.622;2024-02-16T02:02:33;100264.63;;;5.51;100.00
12203;BME280;6164;42.178;24.622;2024-02-16T02:04:59;100268.44;;;5.47;100.00
12203;BME280;6164;42.178;24.622;2024-02-16T02:07:26;100273.66;;;5.47;100.00
12203;BME280;6164;42.178;24.622;2024-02-16T02:09:54;100263.91;;;5.49;100.00
12203;BME280;6164;42.178;24.622;2024-02-16T02:12:21;100253.41;;;5.60;100.00
12203;BME280;6164;42.178;24.622;2024-02-16T02:14:48;100258.56;;;5.62;100.00
12203;BME280;6164;42.178;24.622;2024-02-16T02:17:14;100258.09;;;5.57;100.00
12203;BME280;6164;42.178;24.622;2024-02-16T02:19:41;100262.84;;;5.63;100.00
12203;BME280;6164;42.178;24.622;2024-02-16T02:22:11;100262.00;;;5.62;100.00
12203;BME280;6164;42.178;24.622;2024-02-16T02:24:38;100260.22;;;5.63;100.00
12203;BME280;6164;42.178;24.622;2024-02-16T02:27:04;100260.56;;;5.69;100.00
12203;BME280;6164;42.178;24.622;2024-02-16T02:29:31;100258.19;;;5.66;100.00
12203;BME280;6164;42.178;24.622;2024-02-16T02:31:58;100255.09;;;5.61;100.00
12203;BME280;6164;42.178;24.622;2024-02-16T02:34:25;100257.84;;;5.49;100.00
12203;BME280;6164;42.178;24.622;2024-02-16T02:36:51;100264.50;;;5.53;100.00
12203;BME280;6164;42.178;24.622;2024-02-16T02:39:19;100259.63;;;5.48;100.00
12203;BME280;6164;42.178;24.622;2024-02-16T02:41:46;100259.03;;;5.45;100.00
12203;BME280;6164;42.178;24.622;2024-02-16T02:44:12;100260.00;;;5.44;100.00
12203;BME280;6164;42.178;24.622;2024-02-16T02:46:39;100259.03;;;5.45;100.00
12203;BME280;6164;42.178;24.622;2024-02-16T02:49:06;100264.88;;;5.26;100.00
12203;BME280;6164;42.178;24.622;2024-02-16T02:51:33;100261.03;;;5.19;100.00
12203;BME280;6164;42.178;24.622;2024-02-16T02:54:00;100254.75;;;5.10;100.00
12203;BME280;6164;42.178;24.622;2024-02-16T02:56:27;100257.09;;;4.91;100.00
12203;BME280;6164;42.178;24.622;2024-02-16T02:58:54;100263.41;;;4.89;100.00
12203;BME280;6164;42.178;24.622;2024-02-16T03:01:20;100261.22;;;4.72;100.00
12203;BME280;6164;42.178;24.622;2024-02-16T03:03:47;100271.19;;;4.67;100.00
12203;BME280;6164;42.178;24.622;2024-02-16T03:06:17;100274.50;;;4.58;100.00
12203;BME280;6164;42.178;24.622;2024-02-16T03:08:43;100269.97;;;4.60;100.00
12203;BME280;6164;42.178;24.622;2024-02-16T03:11:10;100273.66;;;4.57;100.00
12203;BME280;6164;42.178;24.622;2024-02-16T03:13:38;100274.69;;;4.55;100.00
12203;BME280;6164;42.178;24.622;2024-02-16T03:16:05;100273.06;;;4.65;100.00
12203;BME280;6164;42.178;24.622;2024-02-16T03:18:31;100268.34;;;4.70;100.00
12203;BME280;6164;42.178;24.622;2024-02-16T03:20:58;100279.16;;;4.76;100.00
12203;BME280;6164;42.178;24.622;2024-02-16T03:23:24;100280.47;;;4.71;100.00
12203;BME280;6164;42.178;24.622;2024-02-16T03:25:51;100277.63;;;4.74;100.00
12203;BME280;6164;42.178;24.622;2024-02-16T03:28:17;100281.09;;;4.74;100.00
12203;BME280;6164;42.178;24.622;2024-02-16T03:30:47;100282.63;;;4.77;100.00
12203;BME280;6164;42.178;24.622;2024-02-16T03:33:13;100275.69;;;4.65;100.00
12203;BME280;6164;42.178;24.622;2024-02-16T03:35:40;100285.09;;;4.56;100.00
12203;BME280;6164;42.178;24.622;2024-02-16T03:38:06;100281.38;;;4.59;100.00
12203;BME280;6164;42.178;24.622;2024-02-16T03:40:33;100289.00;;;4.62;100.00
12203;BME280;6164;42.178;24.622;2024-02-16T03:42:59;100283.66;;;4.63;100.00
12203;BME280;6164;42.178;24.622;2024-02-16T03:45:26;100282.59;;;4.66;100.00
12203;BME280;6164;42.178;24.622;2024-02-16T03:47:54;100280.72;;;4.68;100.00
12203;BME280;6164;42.178;24.622;2024-02-16T03:50:21;100283.34;;;4.68;100.00
12203;BME280;6164;42.178;24.622;2024-02-16T03:52:48;100290.22;;;4.69;100.00
12203;BME280;6164;42.178;24.622;2024-02-16T03:55:14;100287.84;;;4.66;100.00
12203;BME280;6164;42.178;24.622;2024-02-16T03:57:41;100288.38;;;4.58;100.00
12203;BME280;6164;42.178;24.622;2024-02-16T04:00:08;100295.63;;;4.55;100.00
12203;BME280;6164;42.178;24.622;2024-02-16T04:02:34;100301.66;;;4.44;100.00
12203;BME280;6164;42.178;24.622;2024-02-16T04:05:03;100297.31;;;4.32;100.00
12203;BME280;6164;42.178;24.622;2024-02-16T04:07:29;100303.38;;;4.33;100.00
12203;BME280;6164;42.178;24.622;2024-02-16T04:09:56;100305.66;;;4.37;100.00
12203;BME280;6164;42.178;24.622;2024-02-16T04:12:22;100296.78;;;4.40;100.00
12203;BME280;6164;42.178;24.622;2024-02-16T04:14:49;100298.66;;;4.38;100.00
12203;BME280;6164;42.178;24.622;2024-02-16T04:17:15;100289.31;;;4.46;100.00
12203;BME280;6164;42.178;24.622;2024-02-16T04:19:42;100288.34;;;4.47;100.00
12203;BME280;6164;42.178;24.622;2024-02-16T04:22:10;100292.44;;;4.51;100.00
12203;BME280;6164;42.178;24.622;2024-02-16T04:24:36;100290.19;;;4.58;100.00
12203;BME280;6164;42.178;24.622;2024-02-16T04:27:03;100288.56;;;4.68;100.00
12203;BME280;6164;42.178;24.622;2024-02-16T04:29:29;100282.13;;;4.72;100.00
12203;BME280;6164;42.178;24.622;2024-02-16T04:31:56;100286.31;;;4.74;100.00
12203;BME280;6164;42.178;24.622;2024-02-16T04:34:22;100286.59;;;4.82;100.00
12203;BME280;6164;42.178;24.622;2024-02-16T04:36:49;100281.72;;;5.00;100.00
12203;BME280;6164;42.178;24.622;2024-02-16T04:39:17;100286.28;;;5.09;100.00
12203;BME280;6164;42.178;24.622;2024-02-16T04:41:44;100286.84;;;5.12;100.00
12203;BME280;6164;42.178;24.622;2024-02-16T04:44:11;100287.69;;;5.13;100.00
12203;BME280;6164;42.178;24.622;2024-02-16T04:46:38;100289.84;;;5.08;100.00
12203;BME280;6164;42.178;24.622;2024-02-16T04:49:04;100296.16;;;5.05;100.00
12203;BME280;6164;42.178;24.622;2024-02-16T04:51:31;100293.75;;;5.02;100.00
12203;BME280;6164;42.178;24.622;2024-02-16T04:53:57;100294.44;;;4.93;100.00
12203;BME280;6164;42.178;24.622;2024-02-16T04:56:25;100299.06;;;4.90;100.00
12203;BME280;6164;42.178;24.622;2024-02-16T04:58:52;100296.09;;;4.83;100.00
12203;BME280;6164;42.178;24.622;2024-02-16T05:01:18;100302.22;;;4.71;100.00
12203;BME280;6164;42.178;24.622;2024-02-16T05:03:45;100303.66;;;4.64;100.00
12203;BME280;6164;42.178;24.622;2024-02-16T05:06:11;100309.88;;;4.51;100.00
12203;BME280;6164;42.178;24.622;2024-02-16T05:08:37;100309.28;;;4.47;100.00
12203;BME280;6164;42.178;24.622;2024-02-16T05:11:04;100312.72;;;4.24;100.00
12203;BME280;6164;42.178;24.622;2024-02-16T05:13:35;100316.16;;;4.01;100.00
12203;BME280;6164;42.178;24.622;2024-02-16T05:16:01;100320.50;;;3.77;100.00
12203;BME280;6164;42.178;24.622;2024-02-16T05:18:29;100325.56;;;3.55;100.00
12203;BME280;6164;42.178;24.622;2024-02-16T05:20:55;100324.53;;;3.32;100.00
12203;BME280;6164;42.178;24.622;2024-02-16T05:23:23;100331.09;;;3.25;100.00
12203;BME280;6164;42.178;24.622;2024-02-16T05:25:49;100334.63;;;3.12;100.00
12203;BME280;6164;42.178;24.622;2024-02-16T05:28:16;100328.19;;;3.05;100.00
12203;BME280;6164;42.178;24.622;2024-02-16T05:30:44;100340.06;;;3.09;100.00
12203;BME280;6164;42.178;24.622;2024-02-16T05:33:11;100343.19;;;3.14;100.00
12203;BME280;6164;42.178;24.622;2024-02-16T05:35:39;100338.09;;;3.12;100.00
12203;BME280;6164;42.178;24.622;2024-02-16T05:38:06;100348.72;;;3.22;100.00
12203;BME280;6164;42.178;24.622;2024-02-16T05:40:45;100348.63;;;3.23;100.00
12203;BME280;6164;42.178;24.622;2024-02-16T05:43:18;100350.06;;;3.15;100.00
12203;BME280;6164;42.178;24.622;2024-02-16T05:45:46;100350.72;;;3.18;100.00
12203;BME280;6164;42.178;24.622;2024-02-16T05:48:13;100354.06;;;3.20;100.00
12203;BME280;6164;42.178;24.622;2024-02-16T05:50:39;100357.72;;;3.30;100.00
12203;BME280;6164;42.178;24.622;2024-02-16T05:53:05;100363.34;;;3.49;100.00
12203;BME280;6164;42.178;24.622;2024-02-16T05:55:32;100358.72;;;3.78;100.00
12203;BME280;6164;42.178;24.622;2024-02-16T05:57:59;100358.81;;;3.89;100.00
12203;BME280;6164;42.178;24.622;2024-02-16T06:00:26;100368.22;;;3.91;100.00
12203;BME280;6164;42.178;24.622;2024-02-16T06:02:54;100362.66;;;3.96;100.00
12203;BME280;6164;42.178;24.622;2024-02-16T06:05:21;100359.31;;;3.94;100.00
12203;BME280;6164;42.178;24.622;2024-02-16T06:07:47;100365.38;;;3.94;100.00
12203;BME280;6164;42.178;24.622;2024-02-16T06:10:14;100363.31;;;3.87;100.00
12203;BME280;6164;42.178;24.622;2024-02-16T06:12:40;100355.50;;;3.87;100.00
12203;BME280;6164;42.178;24.622;2024-02-16T06:15:07;100361.44;;;3.76;100.00
12203;BME280;6164;42.178;24.622;2024-02-16T06:17:34;100361.03;;;3.70;100.00
12203;BME280;6164;42.178;24.622;2024-02-16T06:20:03;100361.25;;;3.67;100.00
12203;BME280;6164;42.178;24.622;2024-02-16T06:22:30;100358.44;;;3.70;100.00
12203;BME280;6164;42.178;24.622;2024-02-16T06:24:57;100364.69;;;3.67;100.00
12203;BME280;6164;42.178;24.622;2024-02-16T06:27:24;100372.34;;;3.70;100.00
12203;BME280;6164;42.178;24.622;2024-02-16T06:29:50;100373.66;;;3.76;100.00
12203;BME280;6164;42.178;24.622;2024-02-16T06:32:17;100371.47;;;3.82;100.00
12203;BME280;6164;42.178;24.622;2024-02-16T06:34:43;100372.50;;;3.92;100.00
12203;BME280;6164;42.178;24.622;2024-02-16T06:37:12;100373.53;;;4.02;100.00
12203;BME280;6164;42.178;24.622;2024-02-16T06:39:38;100377.38;;;4.10;100.00
12203;BME280;6164;42.178;24.622;2024-02-16T06:42:05;100369.94;;;4.16;100.00
12203;BME280;6164;42.178;24.622;2024-02-16T06:44:31;100371.06;;;4.25;100.00
12203;BME280;6164;42.178;24.622;2024-02-16T06:46:58;100374.81;;;4.33;100.00
12203;BME280;6164;42.178;24.622;2024-02-16T06:49:25;100373.28;;;4.42;100.00
12203;BME280;6164;42.178;24.622;2024-02-16T06:51:51;100371.56;;;4.53;100.00
12203;BME280;6164;42.178;24.622;2024-02-16T06:54:19;100374.88;;;4.68;100.00
12203;BME280;6164;42.178;24.622;2024-02-16T06:56:46;100375.63;;;4.81;100.00
12203;BME280;6164;42.178;24.622;2024-02-16T06:59:12;100377.22;;;4.94;100.00
12203;BME280;6164;42.178;24.622;2024-02-16T07:01:39;100378.19;;;5.04;100.00
12203;BME280;6164;42.178;24.622;2024-02-16T07:04:05;100381.56;;;5.17;100.00
12203;BME280;6164;42.178;24.622;2024-02-16T07:06:32;100383.50;;;5.26;100.00
12203;BME280;6164;42.178;24.622;2024-02-16T07:08:59;100382.91;;;5.34;100.00
12203;BME280;6164;42.178;24.622;2024-02-16T07:11:27;100370.91;;;5.43;100.00
12203;BME280;6164;42.178;24.622;2024-02-16T07:13:53;100372.72;;;5.53;100.00
12203;BME280;6164;42.178;24.622;2024-02-16T07:16:20;100373.56;;;5.65;100.00
12203;BME280;6164;42.178;24.622;2024-02-16T07:18:46;100374.78;;;5.83;100.00
12203;BME280;6164;42.178;24.622;2024-02-16T07:21:13;100371.44;;;5.92;100.00
12203;BME280;6164;42.178;24.622;2024-02-16T07:23:39;100367.41;;;5.99;100.00
12203;BME280;6164;42.178;24.622;2024-02-16T07:26:06;100375.13;;;6.11;100.00
12203;BME280;6164;42.178;24.622;2024-02-16T07:28:34;100375.94;;;6.23;100.00
12203;BME280;6164;42.178;24.622;2024-02-16T07:31:00;100373.56;;;6.31;100.00
12203;BME280;6164;42.178;24.622;2024-02-16T07:33:28;100377.72;;;6.33;100.00
12203;BME280;6164;42.178;24.622;2024-02-16T07:35:54;100377.69;;;6.44;100.00
12203;BME280;6164;42.178;24.622;2024-02-16T07:38:21;100378.66;;;6.43;100.00
12203;BME280;6164;42.178;24.622;2024-02-16T07:40:48;100379.13;;;6.48;100.00
12203;BME280;6164;42.178;24.622;2024-02-16T07:43:15;100370.03;;;6.52;100.00
12203;BME280;6164;42.178;24.622;2024-02-16T07:45:43;100375.41;;;6.51;100.00
12203;BME280;6164;42.178;24.622;2024-02-16T07:48:10;100375.72;;;6.57;100.00
12203;BME280;6164;42.178;24.622;2024-02-16T07:50:36;100384.53;;;6.67;100.00
12203;BME280;6164;42.178;24.622;2024-02-16T07:53:03;100385.00;;;6.72;100.00
12203;BME280;6164;42.178;24.622;2024-02-16T07:55:30;100374.22;;;6.87;100.00
12203;BME280;6164;42.178;24.622;2024-02-16T07:57:56;100376.97;;;7.06;100.00
12203;BME280;6164;42.178;24.622;2024-02-16T08:00:23;100375.13;;;7.17;100.00
12203;BME280;6164;42.178;24.622;2024-02-16T08:02:50;100373.28;;;7.29;100.00
12203;BME280;6164;42.178;24.622;2024-02-16T08:05:17;100381.38;;;7.46;100.00
12203;BME280;6164;42.178;24.622;2024-02-16T08:07:44;100375.16;;;7.68;100.00
12203;BME280;6164;42.178;24.622;2024-02-16T08:10:12;100372.34;;;7.90;100.00
12203;BME280;6164;42.178;24.622;2024-02-16T08:12:38;100378.53;;;8.19;100.00
12203;BME280;6164;42.178;24.622;2024-02-16T08:15:06;100366.56;;;8.45;100.00
12203;BME280;6164;42.178;24.622;2024-02-16T08:17:33;100363.84;;;8.75;100.00
12203;BME280;6164;42.178;24.622;2024-02-16T08:20:01;100370.22;;;8.82;97.84
12203;BME280;6164;42.178;24.622;2024-02-16T08:22:28;100366.47;;;8.85;96.28
12203;BME280;6164;42.178;24.622;2024-02-16T08:24:55;100358.19;;;8.99;99.23
12203;BME280;6164;42.178;24.622;2024-02-16T08:27:21;100368.41;;;9.30;99.04
12203;BME280;6164;42.178;24.622;2024-02-16T08:29:48;100371.84;;;9.31;92.01
12203;BME280;6164;42.178;24.622;2024-02-16T08:32:14;100373.78;;;9.48;91.68
12203;BME280;6164;42.178;24.622;2024-02-16T08:34:41;100382.78;;;9.55;87.89
12203;BME280;6164;42.178;24.622;2024-02-16T08:37:09;100377.31;;;9.66;87.49
12203;BME280;6164;42.178;24.622;2024-02-16T08:39:37;100377.13;;;9.77;85.93
12203;BME280;6164;42.178;24.622;2024-02-16T08:42:03;100379.47;;;9.90;84.97
12203;BME280;6164;42.178;24.622;2024-02-16T08:44:30;100376.09;;;9.97;84.52
12203;BME280;6164;42.178;24.622;2024-02-16T08:46:56;100380.78;;;10.13;83.83
12203;BME280;6164;42.178;24.622;2024-02-16T08:49:23;100382.94;;;10.27;83.41
12203;BME280;6164;42.178;24.622;2024-02-16T08:51:49;100379.34;;;10.45;83.30
12203;BME280;6164;42.178;24.622;2024-02-16T08:54:17;100388.75;;;10.57;80.08
12203;BME280;6164;42.178;24.622;2024-02-16T08:56:44;100402.22;;;10.54;78.07
12203;BME280;6164;42.178;24.622;2024-02-16T08:59:11;100399.75;;;10.71;77.34
12203;BME280;6164;42.178;24.622;2024-02-16T09:01:37;100412.66;;;10.91;75.77
12203;BME280;6164;42.178;24.622;2024-02-16T09:04:05;100414.03;;;11.13;74.02
12203;BME280;6164;42.178;24.622;2024-02-16T09:06:31;100438.47;;;11.32;71.29
12203;BME280;6164;42.178;24.622;2024-02-16T09:08:59;100438.84;;;11.37;70.44
12203;BME280;6164;42.178;24.622;2024-02-16T09:11:27;100436.31;;;11.53;70.35
12203;BME280;6164;42.178;24.622;2024-02-16T09:13:54;100445.16;;;11.62;68.69
12203;BME280;6164;42.178;24.622;2024-02-16T09:16:20;100453.34;;;11.68;66.89
12203;BME280;6164;42.178;24.622;2024-02-16T09:18:47;100456.03;;;11.76;66.85
12203;BME280;6164;42.178;24.622;2024-02-16T09:21:14;100456.97;;;11.93;66.67
12203;BME280;6164;42.178;24.622;2024-02-16T09:23:40;100469.13;;;12.04;65.41
12203;BME280;6164;42.178;24.622;2024-02-16T09:26:07;100472.53;;;12.22;64.24
12203;BME280;6164;42.178;24.622;2024-02-16T09:28:38;100470.13;;;12.36;64.76
12203;BME280;6164;42.178;24.622;2024-02-16T09:31:05;100467.56;;;12.60;64.49
12203;BME280;6164;42.178;24.622;2024-02-16T09:33:32;100470.38;;;12.59;63.63
12203;BME280;6164;42.178;24.622;2024-02-16T09:35:59;100487.13;;;12.59;62.00
12203;BME280;6164;42.178;24.622;2024-02-16T09:38:25;100462.91;;;12.54;64.42
12203;BME280;6164;42.178;24.622;2024-02-16T09:40:52;100484.81;;;12.64;61.88
12203;BME280;6164;42.178;24.622;2024-02-16T09:43:24;100483.66;;;12.67;62.28
12203;BME280;6164;42.178;24.622;2024-02-16T09:45:56;100456.91;;;12.94;63.43
12203;BME280;6164;42.178;24.622;2024-02-16T09:48:23;100471.91;;;13.11;61.81
12203;BME280;6164;42.178;24.622;2024-02-16T09:50:50;100462.97;;;13.28;62.34
12203;BME280;6164;42.178;24.622;2024-02-16T09:53:17;100488.50;;;13.29;60.42
12203;BME280;6164;42.178;24.622;2024-02-16T09:55:46;100503.88;;;13.09;58.98
12203;BME280;6164;42.178;24.622;2024-02-16T09:58:13;100499.50;;;13.00;59.57
12203;BME280;6164;42.178;24.622;2024-02-16T10:00:47;100504.69;;;13.02;59.69
12203;BME280;6164;42.178;24.622;2024-02-16T10:03:22;100495.00;;;12.85;59.99
12203;BME280;6164;42.178;24.622;2024-02-16T10:08:15;100465.59;;;13.20;59.52
12203;BME280;6164;42.178;24.622;2024-02-16T10:10:42;100482.19;;;13.46;58.91
12203;BME280;6164;42.178;24.622;2024-02-16T10:13:09;100492.34;;;13.67;58.05
12203;BME280;6164;42.178;24.622;2024-02-16T10:15:36;100508.91;;;13.85;56.61
12203;BME280;6164;42.178;24.622;2024-02-16T10:18:03;100504.06;;;14.04;57.17
12203;BME280;6164;42.178;24.622;2024-02-16T10:20:32;100537.41;;;14.23;54.38
12203;BME280;6164;42.178;24.622;2024-02-16T10:23:03;100566.81;;;14.13;53.38
12203;BME280;6164;42.178;24.622;2024-02-16T10:25:29;100557.50;;;14.25;53.74
12203;BME280;6164;42.178;24.622;2024-02-16T10:27:56;100558.16;;;14.19;53.45
12203;BME280;6164;42.178;24.622;2024-02-16T10:30:23;100566.78;;;14.05;52.80
12203;BME280;6164;42.178;24.622;2024-02-16T10:32:54;100551.69;;;14.06;54.12
12203;BME280;6164;42.178;24.622;2024-02-16T10:35:21;100575.09;;;13.94;52.95
12203;BME280;6164;42.178;24.622;2024-02-16T10:37:50;100559.34;;;14.01;53.59
12203;BME280;6164;42.178;24.622;2024-02-16T10:40:17;100562.84;;;14.01;53.48
12203;BME280;6164;42.178;24.622;2024-02-16T10:42:44;100566.28;;;13.94;52.85
12203;BME280;6164;42.178;24.622;2024-02-16T10:45:11;100548.91;;;13.83;53.59
12203;BME280;6164;42.178;24.622;2024-02-16T10:47:38;100557.38;;;13.79;53.24
12203;BME280;6164;42.178;24.622;2024-02-16T10:50:05;100546.25;;;13.75;54.15
12203;BME280;6164;42.178;24.622;2024-02-16T10:52:32;100557.88;;;13.90;53.21
12203;BME280;6164;42.178;24.622;2024-02-16T10:55:01;100565.31;;;13.79;52.92
12203;BME280;6164;42.178;24.622;2024-02-16T10:57:29;100554.84;;;13.77;53.17
12203;BME280;6164;42.178;24.622;2024-02-16T10:59:56;100567.31;;;13.85;51.95
12203;BME280;6164;42.178;24.622;2024-02-16T11:02:24;100571.28;;;13.89;52.13
12203;BME280;6164;42.178;24.622;2024-02-16T11:04:51;100596.34;;;13.86;50.90
12203;BME280;6164;42.178;24.622;2024-02-16T11:07:18;100576.28;;;14.08;51.95
12203;BME280;6164;42.178;24.622;2024-02-16T11:09:45;100559.03;;;14.28;52.47
12203;BME280;6164;42.178;24.622;2024-02-16T11:12:14;100569.25;;;14.47;51.14
12203;BME280;6164;42.178;24.622;2024-02-16T11:14:41;100591.53;;;14.46;49.94
12203;BME280;6164;42.178;24.622;2024-02-16T11:17:08;100613.59;;;14.55;49.67
12203;BME280;6164;42.178;24.622;2024-02-16T11:19:35;100615.06;;;14.65;49.59
12203;BME280;6164;42.178;24.622;2024-02-16T11:22:03;100612.06;;;14.68;49.49
12203;BME280;6164;42.178;24.622;2024-02-16T11:24:32;100626.91;;;14.30;49.52
12203;BME280;6164;42.178;24.622;2024-02-16T11:27:01;100618.28;;;14.44;49.81
12203;BME280;6164;42.178;24.622;2024-02-16T11:29:31;100610.13;;;14.46;50.21
12203;BME280;6164;42.178;24.622;2024-02-16T11:31:57;100601.66;;;14.50;50.31
12203;BME280;6164;42.178;24.622;2024-02-16T11:34:24;100607.97;;;14.33;50.12
12203;BME280;6164;42.178;24.622;2024-02-16T11:36:51;100607.97;;;14.33;49.98
12203;BME280;6164;42.178;24.622;2024-02-16T11:39:19;100597.97;;;14.51;49.60
12203;BME280;6164;42.178;24.622;2024-02-16T11:41:45;100602.94;;;14.71;49.35
12203;BME280;6164;42.178;24.622;2024-02-16T11:44:12;100607.53;;;14.85;49.50
12203;BME280;6164;42.178;24.622;2024-02-16T11:46:42;100598.38;;;14.95;49.77
12203;BME280;6164;42.178;24.622;2024-02-16T11:49:09;100609.28;;;15.08;49.12
12203;BME280;6164;42.178;24.622;2024-02-16T11:51:36;100629.72;;;15.08;48.02
12203;BME280;6164;42.178;24.622;2024-02-16T11:54:04;100622.53;;;15.16;48.49
12203;BME280;6164;42.178;24.622;2024-02-16T11:56:31;100636.47;;;15.26;48.10
12203;BME280;6164;42.178;24.622;2024-02-16T11:58:57;100630.75;;;15.37;48.22
12203;BME280;6164;42.178;24.622;2024-02-16T12:01:24;100644.03;;;15.45;48.44
12203;BME280;6164;42.178;24.622;2024-02-16T12:03:52;100639.81;;;15.59;48.04
12203;BME280;6164;42.178;24.622;2024-02-16T12:06:21;100633.66;;;15.66;48.39
12203;BME280;6164;42.178;24.622;2024-02-16T12:08:49;100646.13;;;15.66;47.15
12203;BME280;6164;42.178;24.622;2024-02-16T12:11:16;100657.25;;;15.69;46.86
12203;BME280;6164;42.178;24.622;2024-02-16T12:13:42;100653.03;;;15.75;46.96
12203;BME280;6164;42.178;24.622;2024-02-16T12:16:08;100658.47;;;15.81;47.45
12203;BME280;6164;42.178;24.622;2024-02-16T12:18:35;100653.28;;;15.88;47.52
12203;BME280;6164;42.178;24.622;2024-02-16T12:21:03;100659.94;;;15.92;46.88
12203;BME280;6164;42.178;24.622;2024-02-16T12:23:31;100666.31;;;15.83;46.16
12203;BME280;6164;42.178;24.622;2024-02-16T12:25:57;100664.88;;;15.95;46.73
12203;BME280;6164;42.178;24.622;2024-02-16T12:28:24;100657.31;;;16.07;47.11
12203;BME280;6164;42.178;24.622;2024-02-16T12:30:52;100676.09;;;16.13;46.04
12203;BME280;6164;42.178;24.622;2024-02-16T12:33:19;100688.34;;;16.22;45.79
12203;BME280;6164;42.178;24.622;2024-02-16T12:35:45;100699.38;;;16.19;45.40
12203;BME280;6164;42.178;24.622;2024-02-16T12:38:13;100696.16;;;16.24;45.75
12203;BME280;6164;42.178;24.622;2024-02-16T12:40:42;100702.66;;;16.21;45.50
12203;BME280;6164;42.178;24.622;2024-02-16T12:43:08;100691.31;;;16.27;46.66
12203;BME280;6164;42.178;24.622;2024-02-16T12:45:36;100681.13;;;16.31;46.61
12203;BME280;6164;42.178;24.622;2024-02-16T12:48:02;100681.06;;;16.61;45.88
12203;BME280;6164;42.178;24.622;2024-02-16T12:50:30;100694.88;;;16.79;45.27